createdAt,value
2023-04-18T00:04:33.998Z,98.42
2023-04-18T00:09:37.526Z,98.90
2023-04-18T00:14:42.021Z,99.77
2023-04-18T00:19:45.315Z,100.00
2023-04-18T00:24:48.954Z,100.00
2023-04-18T00:29:53.359Z,100.00
2023-04-18T00:34:56.383Z,100.00
2023-04-18T00:39:59.414Z,100.00
2023-04-18T00:45:04.408Z,100.00
2023-04-18T00:50:09.214Z,100.00
2023-04-18T00:55:12.659Z,100.00
2023-04-18T01:00:18.296Z,100.00
2023-04-18T01:05:22.102Z,100.00
2023-04-18T01:10:25.614Z,100.00
2023-04-18T01:15:30.122Z,100.00
2023-04-18T01:20:35.337Z,100.00
2023-04-18T01:25:40.228Z,100.00
2023-04-18T01:30:43.274Z,100.00
2023-04-18T01:35:46.333Z,100.00
2023-04-18T01:40:51.145Z,100.00
2023-04-18T01:45:54.211Z,100.00
2023-04-18T01:50:57.266Z,100.00
2023-04-18T01:56:01.658Z,100.00
2023-04-18T02:01:04.946Z,100.00
2023-04-18T02:06:08.497Z,100.00
2023-04-18T02:11:13.130Z,100.00
2023-04-18T02:16:16.319Z,100.00
2023-04-18T02:21:19.488Z,100.00
2023-04-18T02:26:23.901Z,100.00
2023-04-18T02:31:27.021Z,100.00
2023-04-18T02:36:30.894Z,100.00
2023-04-18T02:41:37.626Z,100.00
2023-04-18T02:46:40.685Z,100.00
2023-04-18T02:51:43.741Z,100.00
2023-04-18T02:56:48.197Z,100.00
2023-04-18T03:01:51.302Z,100.00
2023-04-18T03:06:55.951Z,100.00
2023-04-18T03:12:02.411Z,100.00
2023-04-18T03:17:06.087Z,100.00
2023-04-18T03:22:09.156Z,100.00
2023-04-18T03:27:13.813Z,100.00
2023-04-18T03:32:17.348Z,100.00
2023-04-18T03:37:20.490Z,100.00
2023-04-18T03:42:24.928Z,100.00
2023-04-18T03:47:28.079Z,100.00
2023-04-18T03:52:31.121Z,100.00
2023-04-18T03:57:35.606Z,100.00
2023-04-18T04:02:38.912Z,100.00
2023-04-18T04:07:42.019Z,100.00
2023-04-18T04:12:46.876Z,100.00
2023-04-18T04:17:51.386Z,100.00
2023-04-18T04:22:55.428Z,100.00
2023-04-18T04:28:01.850Z,100.00
2023-04-18T04:33:06.481Z,100.00
2023-04-18T04:38:09.734Z,100.00
2023-04-18T04:43:15.392Z,100.00
2023-04-18T04:48:20.513Z,100.00
2023-04-18T04:53:24.104Z,100.00
2023-04-18T04:58:29.033Z,100.00
2023-04-18T05:03:32.650Z,100.00
2023-04-18T05:08:36.307Z,100.00
2023-04-18T05:13:40.737Z,100.00
2023-04-18T05:18:44.066Z,100.00
2023-04-18T05:23:47.255Z,100.00
2023-04-18T05:28:51.740Z,100.00
2023-04-18T05:33:54.879Z,100.00
2023-04-18T05:38:57.933Z,100.00
2023-04-18T05:44:05.381Z,100.00
2023-04-18T05:49:09.084Z,100.00
2023-04-18T05:54:12.371Z,100.00
2023-04-18T05:59:17.085Z,100.00
2023-04-18T06:04:20.842Z,100.00
2023-04-18T06:09:24.217Z,100.00
2023-04-18T06:14:29.990Z,100.00
2023-04-18T06:19:33.018Z,100.00
2023-04-18T06:24:37.287Z,100.00
2023-04-18T06:29:43.214Z,100.00
2023-04-18T06:34:46.246Z,100.00
2023-04-18T06:39:49.288Z,100.00
2023-04-18T06:44:53.642Z,100.00
2023-04-18T06:49:56.735Z,100.00
2023-04-18T06:54:59.831Z,100.00
2023-04-18T07:00:04.834Z,100.00
2023-04-18T07:05:08.822Z,100.00
2023-04-18T07:10:11.915Z,100.00
2023-04-18T07:15:16.789Z,100.00
2023-04-18T07:20:19.820Z,97.18
2023-04-18T07:25:23.362Z,95.29
2023-04-18T07:30:27.729Z,89.96
2023-04-18T07:35:31.526Z,84.93
2023-04-18T07:40:34.552Z,76.74
2023-04-18T07:45:39.388Z,73.66
2023-04-18T07:50:42.436Z,73.91
2023-04-18T07:55:45.664Z,71.49
2023-04-18T08:00:50.108Z,70.13
2023-04-18T08:05:53.504Z,60.53
2023-04-18T08:10:56.540Z,51.10
2023-04-18T08:16:02.591Z,49.47
2023-04-18T08:21:06.499Z,49.10
2023-04-18T08:26:09.552Z,53.24
2023-04-18T08:31:15.226Z,51.61
2023-04-18T08:36:18.412Z,52.38
2023-04-18T08:41:23.525Z,54.85
2023-04-18T08:46:29.928Z,57.04
2023-04-18T08:51:33.893Z,57.57
2023-04-18T08:56:38.331Z,60.56
2023-04-18T09:01:56.171Z,64.87
2023-04-18T09:06:59.249Z,67.95
2023-04-18T09:12:07.774Z,69.61
2023-04-18T09:17:13.609Z,68.71
2023-04-18T09:22:18.692Z,68.69
2023-04-18T09:27:23.226Z,71.85
2023-04-18T09:32:30.857Z,73.19
2023-04-18T09:37:34.019Z,75.62
2023-04-18T09:42:37.334Z,74.05
2023-04-18T09:47:42.229Z,67.29
2023-04-18T09:52:47.085Z,66.78
2023-04-18T09:57:51.773Z,64.31
2023-04-18T10:02:59.322Z,64.25
2023-04-18T10:08:03.143Z,65.33
2023-04-18T10:13:08.342Z,69.52
2023-04-18T10:18:16.924Z,66.17
2023-04-18T10:23:37.269Z,65.82
2023-04-18T10:28:54.299Z,67.32
2023-04-18T10:34:05.344Z,63.95
2023-04-18T10:39:23.490Z,65.80
2023-04-18T10:44:27.501Z,69.15
2023-04-18T10:49:35.442Z,66.69
2023-04-18T10:54:42.817Z,67.12
2023-04-18T10:59:49.790Z,69.50
2023-04-18T11:04:55.646Z,70.41
2023-04-18T11:09:58.677Z,66.78
2023-04-18T11:15:02.992Z,67.07
2023-04-18T11:20:11.045Z,58.49
2023-04-18T11:25:14.667Z,57.55
2023-04-18T11:30:18.552Z,58.97
2023-04-18T11:35:23.141Z,59.77
2023-04-18T11:40:26.245Z,61.14
2023-04-18T11:45:29.673Z,61.50
2023-04-18T11:50:37.189Z,63.73
2023-04-18T11:55:40.233Z,63.38
2023-04-18T12:00:43.269Z,61.00
2023-04-18T12:05:48.268Z,63.08
2023-04-18T12:10:53.449Z,63.37
2023-04-18T12:15:56.656Z,61.93
2023-04-18T12:21:02.349Z,56.35
2023-04-18T12:26:07.029Z,60.35
2023-04-18T12:31:10.987Z,58.85
2023-04-18T12:36:15.361Z,63.43
2023-04-18T12:41:18.369Z,61.91
2023-04-18T12:46:21.431Z,63.91
2023-04-18T12:51:26.084Z,65.33
2023-04-18T12:56:29.107Z,65.82
2023-04-18T13:01:32.206Z,68.67
2023-04-18T13:06:37.579Z,68.80
2023-04-18T13:11:40.622Z,72.08
2023-04-18T13:16:44.179Z,70.28
2023-04-18T13:21:49.660Z,72.09
2023-04-18T13:26:52.769Z,71.81
2023-04-18T13:31:57.968Z,72.86
2023-04-18T13:37:03.292Z,73.05
2023-04-18T13:42:07.613Z,72.59
2023-04-18T13:47:10.852Z,74.13
2023-04-18T13:52:15.436Z,73.53
2023-04-18T13:57:18.449Z,74.50
2023-04-18T14:02:21.545Z,73.84
2023-04-18T14:07:26.175Z,74.13
2023-04-18T14:12:29.191Z,73.74
2023-04-18T14:17:32.304Z,70.50
2023-04-18T14:22:36.709Z,68.21
2023-04-18T14:27:40.221Z,69.49
2023-04-18T14:32:43.409Z,67.87
2023-04-18T14:37:47.739Z,64.44
2023-04-18T14:42:50.924Z,63.13
2023-04-18T14:47:55.509Z,61.90
2023-04-18T14:53:00.324Z,59.98
2023-04-18T14:58:03.361Z,59.82
2023-04-18T15:03:08.244Z,59.27
2023-04-18T15:08:15.774Z,62.31
2023-04-18T15:13:18.854Z,61.50
2023-04-18T15:18:21.902Z,61.51
2023-04-18T15:23:26.453Z,59.90
2023-04-18T15:28:29.832Z,63.04
2023-04-18T15:33:32.848Z,67.73
2023-04-18T15:38:37.263Z,66.17
2023-04-18T15:43:41.667Z,63.89
2023-04-18T15:48:44.684Z,62.76
2023-04-18T15:53:49.428Z,61.76
2023-04-18T15:58:53.132Z,63.91
2023-04-18T16:03:56.277Z,65.04
2023-04-18T16:09:00.733Z,67.53
2023-04-18T16:14:03.793Z,68.84
2023-04-18T16:19:07.270Z,66.29
2023-04-18T16:24:12.246Z,71.16
2023-04-18T16:29:15.557Z,72.05
2023-04-18T16:34:18.607Z,70.45
2023-04-18T16:39:22.967Z,70.67
2023-04-18T16:44:26.363Z,70.44
2023-04-18T16:49:29.359Z,70.65
2023-04-18T16:54:33.785Z,70.48
2023-04-18T16:59:36.976Z,72.90
2023-04-18T17:04:40.986Z,72.16
2023-04-18T17:09:45.467Z,75.00
2023-04-18T17:14:48.494Z,75.32
2023-04-18T17:19:51.505Z,75.63
2023-04-18T17:24:55.853Z,77.52
2023-04-18T17:29:58.964Z,77.96
2023-04-18T17:35:05.150Z,79.44
2023-04-18T17:40:11.571Z,80.53
2023-04-18T17:45:15.082Z,81.45
2023-04-18T17:50:18.367Z,81.29
2023-04-18T17:55:22.768Z,81.42
2023-04-18T18:00:26.355Z,82.66
2023-04-18T18:05:30.016Z,85.08
2023-04-18T18:10:34.697Z,84.97
2023-04-18T18:15:38.234Z,85.79
2023-04-18T18:20:42.512Z,85.58
2023-04-18T18:25:46.892Z,86.09
2023-04-18T18:30:50.496Z,87.72
2023-04-18T18:35:54.607Z,87.88
2023-04-18T18:41:02.319Z,88.47
2023-04-18T18:46:06.618Z,88.92
2023-04-18T18:51:09.781Z,88.64
2023-04-18T18:56:14.543Z,88.86
2023-04-18T19:01:17.605Z,89.94
2023-04-18T19:06:20.635Z,89.60
2023-04-18T19:11:24.988Z,90.07
2023-04-18T19:16:28.097Z,91.16
2023-04-18T19:21:31.272Z,91.48
2023-04-18T19:26:36.572Z,92.09
2023-04-18T19:31:40.152Z,93.34
2023-04-18T19:36:43.168Z,94.16
2023-04-18T19:41:48.051Z,93.51
2023-04-18T19:46:51.058Z,93.70
2023-04-18T19:51:54.717Z,94.38
2023-04-18T19:56:59.049Z,94.32
2023-04-18T20:02:05.689Z,94.13
2023-04-18T20:07:09.499Z,94.60
2023-04-18T20:12:14.353Z,95.63
2023-04-18T20:17:17.488Z,95.27
2023-04-18T20:22:20.590Z,96.69
2023-04-18T20:27:25.092Z,98.61
2023-04-18T20:32:28.612Z,97.78
2023-04-18T20:37:36.368Z,98.26
2023-04-18T20:42:40.746Z,98.08
2023-04-18T20:47:44.000Z,99.98
2023-04-18T20:52:47.242Z,100.00
2023-04-18T20:57:51.613Z,100.00
2023-04-18T21:02:54.748Z,100.00
2023-04-18T21:07:59.526Z,100.00
2023-04-18T21:13:03.910Z,100.00
2023-04-18T21:18:07.001Z,100.00
2023-04-18T21:23:10.271Z,100.00
2023-04-18T21:28:14.680Z,100.00
2023-04-18T21:33:19.171Z,98.71
2023-04-18T21:38:25.362Z,99.45
2023-04-18T21:43:29.735Z,99.20
2023-04-18T21:48:32.768Z,99.85
2023-04-18T21:53:35.826Z,100.00
2023-04-18T21:58:40.226Z,100.00
2023-04-18T22:03:43.440Z,100.00
2023-04-18T22:08:46.746Z,100.00
2023-04-18T22:13:53.967Z,100.00
2023-04-18T22:18:57.807Z,100.00
2023-04-18T22:24:01.241Z,100.00
2023-04-18T22:29:05.580Z,100.00
2023-04-18T22:34:08.608Z,100.00
2023-04-18T22:39:12.391Z,100.00
2023-04-18T22:44:16.962Z,100.00
2023-04-18T22:49:20.371Z,100.00
2023-04-18T22:54:23.919Z,100.00
2023-04-18T22:59:28.297Z,100.00
2023-04-18T23:04:34.319Z,100.00
2023-04-18T23:09:37.357Z,100.00
2023-04-18T23:14:42.791Z,100.00
2023-04-18T23:19:46.255Z,100.00
2023-04-18T23:24:49.258Z,100.00
2023-04-18T23:29:54.003Z,100.00
2023-04-18T23:34:57.349Z,100.00
2023-04-18T23:40:01.132Z,100.00
2023-04-18T23:45:06.611Z,100.00
2023-04-18T23:50:10.881Z,100.00
2023-04-18T23:55:14.377Z,100.00
